Prince George Airport
CYXS : now visible

Airfield :











YOU CAN JOIN US ON...

 
LOGIN :

Register | Disclaimer

   EN    FR    IT 

 









Legend :    VFR   Marginal VFR   IFR   Intensive IFR   Very Intensive IFR
Visi :
Ceiling :
>= 8 km
>= 3000ft
5 to 8 km
1000 to 3000 ft
1500m to 5 km
500 to 1000 ft
800 to 1500m
200 to 500 ft
< 800m
< 200 ft
Symbols :   Thunderstorms  Fog  Heavy snow  Heavy precipitations  Wind > 20 kt






- Airport Elevation : 2267 ft
- IATA code : YXS


CYXS - Prince George

CURRENT METAR :
  • 220400Z AUTO 00000KT 9SM SCT095 M03/M03 A2950 RMK ICG PAST HR SLP025

EXPIRED METARs :
  • 220338Z AUTO VRB02KT 9SM CLR M03/M03 A2949 RMK ICG PAST HR SLP023
  • 220327Z AUTO VRB02KT 1/2SM FZFG FEW002 M04/M04 A2949 RMK ICG INTMT SLP023
  • 220317Z AUTO 17002KT 5SM BR FEW160 M02/M02 A2949 RMK ICG SLP021
  • 220303Z AUTO 16003KT 1 3/4SM BR FEW160 M03/M03 A2948 RMK SLP020
  • 220258Z AUTO 18004KT 5SM BR CLR M03/M03 A2948 RMK SLP021
  • 220248Z AUTO 20003KT 9SM CLR M03/M03 A2948 RMK SLP021
  • 220225Z AUTO 19003KT 140V230 2SM BR FEW120 SCT150 M03/M03 A2948 RMK SLP018
  • 220200Z AUTO 00000KT 9SM SCT100 BKN150 M01/M02 A2947 RMK SLP015

TAF AMD TAF CYXS
Valid from the 22 at 03:00 until the 22 at 13:00 UTC


220303Z 2203/2213 36005KT P6SM FEW040 SCT100
TEMPO 2203/2206 1SM BR
PROB30 2203/2206 1/2SM FZFG VV002
FM220600 VRB03KT P6SM FEW100
PROB30 2206/2213 1/2SM FZFG RMK FCST BASED ON AUTO OBS. NXT FCST BY 220700Z



MET'MAP, your aeronautical weather chart ! - Copyright ORBIFLY December 2007 - Disclaimer

ORBIFLY MET'MAP TEAM :

Programming & Development : Alexandra Zaïnal
Concept & original design : Baudouin d'Aumeries
Assistance for programming : Marc-Olivier Méhu
Technical & hardware support : Manuel Goepfert

Contact : metmap@orbifly.com




SOURCES & CREDITS :

   NOAA       Earth
Advisory